KBOS

General Edward Lawrence Logan International Airport

Boston, Massachusetts, USA
METAR KBOS 100954Z 30009KT 10SM CLR M01/M09 A3006 RMK AO2 SLP180 T10111089
Observed Flight Rules
Dec-10 @ 09:54 UTC (59 minutes ago) Visual Flight Rules
Wind Visibility Clouds
300° at 9 knots 10 miles
  • Clear skies
Temperatures Readings
Current -1°C / 30°F
Dewpoint -9°C / 16°F
Humidity 55%
Altimeter 30.06" Hg
Pressure 1018 hPa
Elevation 6
METAR KBOS 100954Z 30009KT 10SM CLR M01/M09 A3006 RMK AO2 SLP180 T10111089
Observed Flight Rules
Dec-10 @ 09:54 UTC
(59 minutes ago)
VFR
Wind Visibility
300° at 9 knots 10 miles
Clouds
  • Clear skies
Temperature Dewpoint
-1°C / 30°F -9°C / 16°F
Humidity Altimeter Pressure
55% 30.06" Hg 1018 hPa